sensor_id;sensor_type;location;lat;lon;timestamp;pressure;altitude;pressure_sealevel;temperature;humidity
56270;BME280;42176;43.240;27.880;2023-04-29T00:01:18;100232.44;;;9.59;50.99
56270;BME280;42176;43.240;27.880;2023-04-29T00:03:43;100230.69;;;9.58;51.48
56270;BME280;42176;43.240;27.880;2023-04-29T00:06:08;100226.25;;;9.59;51.12
56270;BME280;42176;43.240;27.880;2023-04-29T00:08:36;100221.09;;;9.51;51.09
56270;BME280;42176;43.240;27.880;2023-04-29T00:11:01;100228.13;;;9.54;51.49
56270;BME280;42176;43.240;27.880;2023-04-29T00:13:26;100226.41;;;9.50;51.44
56270;BME280;42176;43.240;27.880;2023-04-29T00:15:52;100216.78;;;9.47;51.74
56270;BME280;42176;43.240;27.880;2023-04-29T00:18:17;100224.78;;;9.41;52.05
56270;BME280;42176;43.240;27.880;2023-04-29T00:20:43;100226.63;;;9.36;52.25
56270;BME280;42176;43.240;27.880;2023-04-29T00:23:08;100231.13;;;9.29;52.51
56270;BME280;42176;43.240;27.880;2023-04-29T00:25:34;100236.44;;;9.31;52.58
56270;BME280;42176;43.240;27.880;2023-04-29T00:28:00;100230.28;;;9.27;53.02
56270;BME280;42176;43.240;27.880;2023-04-29T00:30:30;100225.94;;;9.24;53.12
56270;BME280;42176;43.240;27.880;2023-04-29T00:32:56;100234.78;;;9.20;53.43
56270;BME280;42176;43.240;27.880;2023-04-29T00:35:22;100231.38;;;9.15;53.61
56270;BME280;42176;43.240;27.880;2023-04-29T00:37:47;100223.50;;;9.10;53.84
56270;BME280;42176;43.240;27.880;2023-04-29T00:40:13;100231.53;;;9.03;54.16
56270;BME280;42176;43.240;27.880;2023-04-29T00:42:39;100235.13;;;8.98;54.33
56270;BME280;42176;43.240;27.880;2023-04-29T00:45:06;100235.16;;;8.95;54.46
56270;BME280;42176;43.240;27.880;2023-04-29T00:47:32;100231.75;;;8.87;54.68
56270;BME280;42176;43.240;27.880;2023-04-29T00:49:57;100242.34;;;8.87;54.65
56270;BME280;42176;43.240;27.880;2023-04-29T00:52:23;100239.72;;;8.82;54.78
56270;BME280;42176;43.240;27.880;2023-04-29T00:54:49;100239.81;;;8.76;54.74
56270;BME280;42176;43.240;27.880;2023-04-29T00:57:15;100230.22;;;8.71;54.82
56270;BME280;42176;43.240;27.880;2023-04-29T00:59:41;100230.25;;;8.67;55.02
56270;BME280;42176;43.240;27.880;2023-04-29T01:02:07;100230.28;;;8.64;55.39
56270;BME280;42176;43.240;27.880;2023-04-29T01:04:32;100230.34;;;8.60;55.20
56270;BME280;42176;43.240;27.880;2023-04-29T01:07:03;100228.66;;;8.54;55.31
56270;BME280;42176;43.240;27.880;2023-04-29T01:09:39;100223.44;;;8.48;55.67
56270;BME280;42176;43.240;27.880;2023-04-29T01:14:57;100225.28;;;8.35;55.87
56270;BME280;42176;43.240;27.880;2023-04-29T01:17:30;100228.03;;;8.29;56.20
56270;BME280;42176;43.240;27.880;2023-04-29T01:19:56;100228.97;;;8.23;56.62
56270;BME280;42176;43.240;27.880;2023-04-29T01:22:23;100222.84;;;8.18;56.95
56270;BME280;42176;43.240;27.880;2023-04-29T01:24:49;100216.72;;;8.16;57.20
56270;BME280;42176;43.240;27.880;2023-04-29T01:27:27;100229.06;;;8.14;57.04
56270;BME280;42176;43.240;27.880;2023-04-29T01:32:58;100228.31;;;8.01;57.12
56270;BME280;42176;43.240;27.880;2023-04-29T01:35:39;100227.50;;;7.94;57.34
56270;BME280;42176;43.240;27.880;2023-04-29T01:41:09;100231.13;;;7.85;57.47
56270;BME280;42176;43.240;27.880;2023-04-29T01:43:36;100226.72;;;7.83;57.68
56270;BME280;42176;43.240;27.880;2023-04-29T01:46:05;100230.25;;;7.83;57.74
56270;BME280;42176;43.240;27.880;2023-04-29T01:48:33;100230.25;;;7.80;57.81
56270;BME280;42176;43.240;27.880;2023-04-29T01:50:58;100221.59;;;7.69;57.79
56270;BME280;42176;43.240;27.880;2023-04-29T01:53:24;100230.31;;;7.71;58.07
56270;BME280;42176;43.240;27.880;2023-04-29T01:55:49;100238.28;;;7.69;58.54
56270;BME280;42176;43.240;27.880;2023-04-29T01:58:15;100232.13;;;7.67;58.70
56270;BME280;42176;43.240;27.880;2023-04-29T02:00:40;100229.59;;;7.58;58.64
56270;BME280;42176;43.240;27.880;2023-04-29T02:03:06;100216.44;;;7.50;58.68
56270;BME280;42176;43.240;27.880;2023-04-29T02:05:32;100234.88;;;7.55;58.85
56270;BME280;42176;43.240;27.880;2023-04-29T02:07:59;100229.63;;;7.52;59.08
56270;BME280;42176;43.240;27.880;2023-04-29T02:10:25;100234.91;;;7.49;58.81
56270;BME280;42176;43.240;27.880;2023-04-29T02:12:51;100227.94;;;7.44;59.11
56270;BME280;42176;43.240;27.880;2023-04-29T02:15:16;100234.97;;;7.45;59.32
56270;BME280;42176;43.240;27.880;2023-04-29T02:17:42;100235.84;;;7.43;59.19
56270;BME280;42176;43.240;27.880;2023-04-29T02:20:08;100234.97;;;7.42;59.08
56270;BME280;42176;43.240;27.880;2023-04-29T02:22:34;100229.75;;;7.38;59.31
56270;BME280;42176;43.240;27.880;2023-04-29T02:25:00;100227.97;;;7.38;59.26
56270;BME280;42176;43.240;27.880;2023-04-29T02:27:25;100226.22;;;7.37;59.37
56270;BME280;42176;43.240;27.880;2023-04-29T02:29:51;100230.63;;;7.34;59.29
56270;BME280;42176;43.240;27.880;2023-04-29T02:32:16;100182.50;;;7.05;59.29
56270;BME280;42176;43.240;27.880;2023-04-29T02:34:44;100222.78;;;7.29;59.26
56270;BME280;42176;43.240;27.880;2023-04-29T02:37:10;100218.34;;;7.29;58.97
56270;BME280;42176;43.240;27.880;2023-04-29T02:39:35;100225.41;;;7.27;59.44
56270;BME280;42176;43.240;27.880;2023-04-29T02:42:01;100217.50;;;7.26;59.11
56270;BME280;42176;43.240;27.880;2023-04-29T02:44:27;100224.53;;;7.30;59.35
56270;BME280;42176;43.240;27.880;2023-04-29T02:46:52;100221.88;;;7.28;59.34
56270;BME280;42176;43.240;27.880;2023-04-29T02:49:18;100210.50;;;7.25;58.97
56270;BME280;42176;43.240;27.880;2023-04-29T02:51:43;100221.88;;;7.28;59.16
56270;BME280;42176;43.240;27.880;2023-04-29T02:54:09;100222.75;;;7.27;58.80
56270;BME280;42176;43.240;27.880;2023-04-29T02:56:36;100215.72;;;7.26;58.89
56270;BME280;42176;43.240;27.880;2023-04-29T02:59:01;100219.25;;;7.30;58.69
56270;BME280;42176;43.240;27.880;2023-04-29T03:01:27;100223.63;;;7.29;58.98
56270;BME280;42176;43.240;27.880;2023-04-29T03:03:53;100221.03;;;7.22;58.86
56270;BME280;42176;43.240;27.880;2023-04-29T03:06:19;100226.31;;;7.25;59.08
56270;BME280;42176;43.240;27.880;2023-04-29T03:08:44;100221.03;;;7.22;59.03
56270;BME280;42176;43.240;27.880;2023-04-29T03:11:10;100217.63;;;7.04;59.31
56270;BME280;42176;43.240;27.880;2023-04-29T03:13:36;100215.88;;;7.06;59.48
56270;BME280;42176;43.240;27.880;2023-04-29T03:16:02;100235.16;;;7.13;59.29
56270;BME280;42176;43.240;27.880;2023-04-29T03:18:28;100224.59;;;7.19;59.27
56270;BME280;42176;43.240;27.880;2023-04-29T03:20:53;100223.69;;;7.19;59.31
56270;BME280;42176;43.240;27.880;2023-04-29T03:23:19;100224.56;;;7.24;59.30
56270;BME280;42176;43.240;27.880;2023-04-29T03:25:44;100222.88;;;7.13;59.51
56270;BME280;42176;43.240;27.880;2023-04-29T03:28:10;100217.63;;;7.07;59.53
56270;BME280;42176;43.240;27.880;2023-04-29T03:30:35;100233.44;;;7.07;59.91
56270;BME280;42176;43.240;27.880;2023-04-29T03:33:00;100231.69;;;7.09;59.98
56270;BME280;42176;43.240;27.880;2023-04-29T03:35:26;100223.75;;;7.15;59.65
56270;BME280;42176;43.240;27.880;2023-04-29T03:37:51;100233.44;;;7.10;59.60
56270;BME280;42176;43.240;27.880;2023-04-29T03:40:17;100220.16;;;7.23;59.57
56270;BME280;42176;43.240;27.880;2023-04-29T03:42:43;100223.69;;;7.23;59.12
56270;BME280;42176;43.240;27.880;2023-04-29T03:45:09;100210.50;;;7.25;58.58
56270;BME280;42176;43.240;27.880;2023-04-29T03:47:38;100211.94;;;7.63;57.31
56270;BME280;42176;43.240;27.880;2023-04-29T03:50:05;100232.56;;;8.16;56.10
56270;BME280;42176;43.240;27.880;2023-04-29T03:52:31;100236.47;;;8.60;54.61
56270;BME280;42176;43.240;27.880;2023-04-29T03:54:57;100228.84;;;9.07;53.23
56270;BME280;42176;43.240;27.880;2023-04-29T03:57:22;100232.88;;;9.32;51.97
56270;BME280;42176;43.240;27.880;2023-04-29T03:59:47;100239.19;;;9.79;50.83
56270;BME280;42176;43.240;27.880;2023-04-29T04:02:15;100237.59;;;10.17;49.51
56270;BME280;42176;43.240;27.880;2023-04-29T04:04:40;100238.00;;;10.46;48.50
56270;BME280;42176;43.240;27.880;2023-04-29T04:07:06;100231.69;;;10.94;47.52
56270;BME280;42176;43.240;27.880;2023-04-29T04:09:32;100225.84;;;11.19;46.51
56270;BME280;42176;43.240;27.880;2023-04-29T04:11:58;100232.22;;;11.48;46.26
56270;BME280;42176;43.240;27.880;2023-04-29T04:14:23;100243.78;;;11.83;45.52
56270;BME280;42176;43.240;27.880;2023-04-29T04:16:48;100240.84;;;12.28;44.46
56270;BME280;42176;43.240;27.880;2023-04-29T04:19:15;100238.47;;;12.49;43.77
56270;BME280;42176;43.240;27.880;2023-04-29T04:21:40;100231.88;;;12.92;42.48
56270;BME280;42176;43.240;27.880;2023-04-29T04:24:06;100232.06;;;13.16;42.13
56270;BME280;42176;43.240;27.880;2023-04-29T04:26:32;100229.59;;;13.67;40.92
56270;BME280;42176;43.240;27.880;2023-04-29T04:28:57;100224.38;;;13.64;40.63
56270;BME280;42176;43.240;27.880;2023-04-29T04:31:23;100234.75;;;13.98;40.13
56270;BME280;42176;43.240;27.880;2023-04-29T04:33:49;100239.53;;;14.39;39.52
56270;BME280;42176;43.240;27.880;2023-04-29T04:36:15;100239.81;;;14.81;38.85
56270;BME280;42176;43.240;27.880;2023-04-29T04:38:40;100234.44;;;15.28;38.13
56270;BME280;42176;43.240;27.880;2023-04-29T04:41:06;100239.53;;;15.57;38.14
56270;BME280;42176;43.240;27.880;2023-04-29T04:43:34;100231.69;;;15.96;36.56
56270;BME280;42176;43.240;27.880;2023-04-29T04:46:08;100233.63;;;16.74;35.92
56270;BME280;42176;43.240;27.880;2023-04-29T04:48:34;100236.38;;;17.30;35.10
56270;BME280;42176;43.240;27.880;2023-04-29T04:51:09;100227.75;;;17.60;33.79
56270;BME280;42176;43.240;27.880;2023-04-29T04:53:35;100222.59;;;17.92;33.38
56270;BME280;42176;43.240;27.880;2023-04-29T04:56:02;100219.59;;;17.80;33.33
56270;BME280;42176;43.240;27.880;2023-04-29T04:58:27;100224.50;;;17.72;33.32
56270;BME280;42176;43.240;27.880;2023-04-29T05:00:53;100223.53;;;17.91;32.88
56270;BME280;42176;43.240;27.880;2023-04-29T05:03:18;100225.03;;;18.32;32.39
56270;BME280;42176;43.240;27.880;2023-04-29T05:05:44;100230.63;;;18.45;32.41
56270;BME280;42176;43.240;27.880;2023-04-29T05:08:09;100209.31;;;18.41;32.04
56270;BME280;42176;43.240;27.880;2023-04-29T05:10:35;100224.97;;;18.67;32.12
56270;BME280;42176;43.240;27.880;2023-04-29T05:13:01;100225.56;;;19.84;30.35
56270;BME280;42176;43.240;27.880;2023-04-29T05:15:26;100238.94;;;20.76;29.42
56270;BME280;42176;43.240;27.880;2023-04-29T05:17:52;100233.75;;;21.29;28.41
56270;BME280;42176;43.240;27.880;2023-04-29T05:20:17;100232.69;;;21.86;27.90
56270;BME280;42176;43.240;27.880;2023-04-29T05:22:44;100225.88;;;22.47;26.99
56270;BME280;42176;43.240;27.880;2023-04-29T05:25:10;100234.06;;;22.58;26.56
56270;BME280;42176;43.240;27.880;2023-04-29T05:27:35;100239.19;;;23.13;26.08
56270;BME280;42176;43.240;27.880;2023-04-29T05:30:01;100226.91;;;23.57;25.00
56270;BME280;42176;43.240;27.880;2023-04-29T05:32:26;100230.59;;;23.56;24.08
56270;BME280;42176;43.240;27.880;2023-04-29T05:34:51;100232.88;;;24.45;24.05
56270;BME280;42176;43.240;27.880;2023-04-29T05:37:17;100230.97;;;24.70;23.37
56270;BME280;42176;43.240;27.880;2023-04-29T05:39:42;100220.00;;;23.53;24.36
56270;BME280;42176;43.240;27.880;2023-04-29T05:42:08;100225.41;;;22.66;25.34
56270;BME280;42176;43.240;27.880;2023-04-29T05:44:33;100222.19;;;22.48;25.69
56270;BME280;42176;43.240;27.880;2023-04-29T05:46:59;100221.22;;;23.12;24.97
56270;BME280;42176;43.240;27.880;2023-04-29T05:49:24;100220.22;;;23.99;24.16
56270;BME280;42176;43.240;27.880;2023-04-29T05:51:50;100211.09;;;24.36;23.28
56270;BME280;42176;43.240;27.880;2023-04-29T05:54:15;100211.13;;;24.92;23.28
56270;BME280;42176;43.240;27.880;2023-04-29T05:56:41;100221.56;;;25.20;22.39
56270;BME280;42176;43.240;27.880;2023-04-29T05:59:06;100215.44;;;24.84;21.81
56270;BME280;42176;43.240;27.880;2023-04-29T06:01:32;100212.19;;;25.89;21.03
56270;BME280;42176;43.240;27.880;2023-04-29T06:03:57;100207.00;;;25.86;21.22
56270;BME280;42176;43.240;27.880;2023-04-29T06:06:23;100214.13;;;26.41;19.90
56270;BME280;42176;43.240;27.880;2023-04-29T06:08:48;100207.91;;;25.87;20.72
56270;BME280;42176;43.240;27.880;2023-04-29T06:11:15;100222.09;;;24.91;20.69
56270;BME280;42176;43.240;27.880;2023-04-29T06:13:40;100222.38;;;25.43;20.21
56270;BME280;42176;43.240;27.880;2023-04-29T06:16:06;100216.38;;;26.36;19.89
56270;BME280;42176;43.240;27.880;2023-04-29T06:18:32;100214.16;;;26.20;19.85
56270;BME280;42176;43.240;27.880;2023-04-29T06:20:57;100217.38;;;25.92;20.22
56270;BME280;42176;43.240;27.880;2023-04-29T06:23:22;100216.09;;;25.75;20.13
56270;BME280;42176;43.240;27.880;2023-04-29T06:25:48;100221.47;;;26.50;19.75
56270;BME280;42176;43.240;27.880;2023-04-29T06:28:13;100223.44;;;26.48;19.94
56270;BME280;42176;43.240;27.880;2023-04-29T06:30:39;100216.59;;;25.36;20.34
56270;BME280;42176;43.240;27.880;2023-04-29T06:33:05;100217.94;;;23.81;21.69
56270;BME280;42176;43.240;27.880;2023-04-29T06:35:32;100214.75;;;23.87;22.15
56270;BME280;42176;43.240;27.880;2023-04-29T06:37:57;100207.13;;;23.20;22.08
56270;BME280;42176;43.240;27.880;2023-04-29T06:40:22;100207.94;;;24.06;22.63
56270;BME280;42176;43.240;27.880;2023-04-29T06:42:48;100244.53;;;23.39;22.27
56270;BME280;42176;43.240;27.880;2023-04-29T06:45:14;100233.97;;;24.43;21.02
56270;BME280;42176;43.240;27.880;2023-04-29T06:47:39;100236.47;;;25.03;20.47
56270;BME280;42176;43.240;27.880;2023-04-29T06:50:05;100225.19;;;24.16;21.56
56270;BME280;42176;43.240;27.880;2023-04-29T06:52:30;100227.22;;;24.48;21.62
56270;BME280;42176;43.240;27.880;2023-04-29T06:54:56;100230.44;;;24.76;21.14
56270;BME280;42176;43.240;27.880;2023-04-29T06:57:21;100229.13;;;24.82;20.83
56270;BME280;42176;43.240;27.880;2023-04-29T06:59:47;100234.84;;;24.43;21.00
56270;BME280;42176;43.240;27.880;2023-04-29T07:02:12;100244.22;;;24.62;21.04
56270;BME280;42176;43.240;27.880;2023-04-29T07:04:38;100224.16;;;24.65;19.91
56270;BME280;42176;43.240;27.880;2023-04-29T07:07:04;100213.31;;;25.10;19.80
56270;BME280;42176;43.240;27.880;2023-04-29T07:09:29;100223.28;;;24.41;20.19
56270;BME280;42176;43.240;27.880;2023-04-29T07:11:55;100225.84;;;25.45;19.75
56270;BME280;42176;43.240;27.880;2023-04-29T07:14:20;100220.59;;;25.86;18.20
56270;BME280;42176;43.240;27.880;2023-04-29T07:16:52;100211.13;;;26.02;18.96
56270;BME280;42176;43.240;27.880;2023-04-29T07:19:18;100225.31;;;24.73;20.04
56270;BME280;42176;43.240;27.880;2023-04-29T07:21:43;100219.34;;;25.90;18.78
56270;BME280;42176;43.240;27.880;2023-04-29T07:24:09;100215.78;;;26.53;18.40
56270;BME280;42176;43.240;27.880;2023-04-29T07:26:34;100216.28;;;25.62;18.92
56270;BME280;42176;43.240;27.880;2023-04-29T07:29:00;100212.13;;;25.47;18.59
56270;BME280;42176;43.240;27.880;2023-04-29T07:31:25;100208.97;;;24.28;19.18
56270;BME280;42176;43.240;27.880;2023-04-29T07:33:51;100220.53;;;25.32;18.28
56270;BME280;42176;43.240;27.880;2023-04-29T07:36:17;100211.75;;;25.84;18.19
56270;BME280;42176;43.240;27.880;2023-04-29T07:38:42;100229.47;;;25.00;19.28
56270;BME280;42176;43.240;27.880;2023-04-29T07:41:08;100222.41;;;25.97;18.56
56270;BME280;42176;43.240;27.880;2023-04-29T07:43:33;100216.31;;;25.39;18.46
56270;BME280;42176;43.240;27.880;2023-04-29T07:45:59;100193.00;;;25.48;18.77
56270;BME280;42176;43.240;27.880;2023-04-29T07:48:24;100216.13;;;24.63;19.26
56270;BME280;42176;43.240;27.880;2023-04-29T07:50:50;100207.41;;;24.01;19.37
56270;BME280;42176;43.240;27.880;2023-04-29T07:53:15;100214.84;;;25.35;18.74
56270;BME280;42176;43.240;27.880;2023-04-29T07:55:42;100210.03;;;26.25;18.44
56270;BME280;42176;43.240;27.880;2023-04-29T07:58:07;100202.78;;;25.72;18.47
56270;BME280;42176;43.240;27.880;2023-04-29T08:00:33;100203.88;;;26.23;18.13
56270;BME280;42176;43.240;27.880;2023-04-29T08:02:58;100212.44;;;25.21;18.68
56270;BME280;42176;43.240;27.880;2023-04-29T08:05:24;100198.94;;;25.75;18.56
56270;BME280;42176;43.240;27.880;2023-04-29T08:07:49;100213.41;;;25.08;19.10
56270;BME280;42176;43.240;27.880;2023-04-29T08:10:16;100207.03;;;24.98;19.18
56270;BME280;42176;43.240;27.880;2023-04-29T08:12:45;100212.06;;;25.03;19.78
56270;BME280;42176;43.240;27.880;2023-04-29T08:15:10;100205.16;;;25.65;18.97
56270;BME280;42176;43.240;27.880;2023-04-29T08:17:36;100182.59;;;25.86;19.23
56270;BME280;42176;43.240;27.880;2023-04-29T08:20:01;100208.00;;;24.40;19.47
56270;BME280;42176;43.240;27.880;2023-04-29T08:22:27;100201.63;;;24.87;19.50
56270;BME280;42176;43.240;27.880;2023-04-29T08:24:52;100204.09;;;24.90;19.26
56270;BME280;42176;43.240;27.880;2023-04-29T08:27:18;100186.06;;;24.66;20.55
56270;BME280;42176;43.240;27.880;2023-04-29T08:29:44;100180.78;;;24.42;21.10
56270;BME280;42176;43.240;27.880;2023-04-29T08:32:09;100180.91;;;24.40;20.60
56270;BME280;42176;43.240;27.880;2023-04-29T08:34:35;100178.88;;;23.97;21.25
56270;BME280;42176;43.240;27.880;2023-04-29T08:37:01;100182.00;;;24.38;20.90
56270;BME280;42176;43.240;27.880;2023-04-29T08:39:28;100186.34;;;23.57;21.19
56270;BME280;42176;43.240;27.880;2023-04-29T08:41:58;100171.81;;;22.73;22.57
56270;BME280;42176;43.240;27.880;2023-04-29T08:44:27;100167.66;;;22.93;23.08
56270;BME280;42176;43.240;27.880;2023-04-29T08:46:54;100173.03;;;23.54;22.71
56270;BME280;42176;43.240;27.880;2023-04-29T08:49:20;100179.41;;;24.13;21.96
56270;BME280;42176;43.240;27.880;2023-04-29T08:51:49;100181.00;;;24.27;21.53
56270;BME280;42176;43.240;27.880;2023-04-29T08:54:17;100169.97;;;23.59;21.86
56270;BME280;42176;43.240;27.880;2023-04-29T08:56:45;100166.28;;;23.60;22.39
56270;BME280;42176;43.240;27.880;2023-04-29T08:59:14;100172.13;;;23.18;23.47
56270;BME280;42176;43.240;27.880;2023-04-29T09:01:41;100167.78;;;23.29;22.68
56270;BME280;42176;43.240;27.880;2023-04-29T09:06:39;100155.84;;;21.92;23.75
56270;BME280;42176;43.240;27.880;2023-04-29T09:09:05;100161.59;;;21.05;25.09
56270;BME280;42176;43.240;27.880;2023-04-29T09:11:31;100163.28;;;21.21;25.23
56270;BME280;42176;43.240;27.880;2023-04-29T09:14:00;100164.63;;;19.69;26.74
56270;BME280;42176;43.240;27.880;2023-04-29T09:19:48;100150.28;;;17.90;29.60
56270;BME280;42176;43.240;27.880;2023-04-29T09:22:14;100154.13;;;17.32;30.50
56270;BME280;42176;43.240;27.880;2023-04-29T09:24:39;100136.53;;;16.70;31.69
56270;BME280;42176;43.240;27.880;2023-04-29T09:27:05;100143.56;;;16.54;31.79
56270;BME280;42176;43.240;27.880;2023-04-29T09:29:30;100137.94;;;16.20;32.18
56270;BME280;42176;43.240;27.880;2023-04-29T09:31:57;100140.09;;;16.12;33.02
56270;BME280;42176;43.240;27.880;2023-04-29T09:34:34;100130.06;;;16.17;33.61
56270;BME280;42176;43.240;27.880;2023-04-29T09:37:22;100136.88;;;16.24;33.93
56270;BME280;42176;43.240;27.880;2023-04-29T09:39:48;100132.88;;;16.14;33.16
56270;BME280;42176;43.240;27.880;2023-04-29T09:42:14;100133.16;;;16.08;32.55
56270;BME280;42176;43.240;27.880;2023-04-29T09:44:41;100129.81;;;15.82;33.72
56270;BME280;42176;43.240;27.880;2023-04-29T09:47:08;100117.78;;;15.92;33.53
56270;BME280;42176;43.240;27.880;2023-04-29T09:52:06;100117.66;;;15.95;33.75
56270;BME280;42176;43.240;27.880;2023-04-29T09:54:34;100108.84;;;15.93;34.00
56270;BME280;42176;43.240;27.880;2023-04-29T09:57:01;100101.41;;;15.79;33.92
56270;BME280;42176;43.240;27.880;2023-04-29T09:59:29;100112.75;;;15.86;34.56
56270;BME280;42176;43.240;27.880;2023-04-29T10:01:56;100109.22;;;15.84;33.48
56270;BME280;42176;43.240;27.880;2023-04-29T10:04:23;100097.34;;;15.71;33.51
56270;BME280;42176;43.240;27.880;2023-04-29T10:06:51;100086.09;;;15.83;34.91
56270;BME280;42176;43.240;27.880;2023-04-29T10:09:18;100100.19;;;15.66;33.77
56270;BME280;42176;43.240;27.880;2023-04-29T10:11:46;100088.50;;;15.27;34.36
56270;BME280;42176;43.240;27.880;2023-04-29T10:14:16;100096.38;;;15.30;34.26
56270;BME280;42176;43.240;27.880;2023-04-29T10:17:07;100096.13;;;15.36;33.95
56270;BME280;42176;43.240;27.880;2023-04-29T10:19:55;100097.84;;;15.58;34.71
56270;BME280;42176;43.240;27.880;2023-04-29T10:22:28;100094.50;;;15.74;34.25
56270;BME280;42176;43.240;27.880;2023-04-29T10:24:58;100077.16;;;15.43;33.89
56270;BME280;42176;43.240;27.880;2023-04-29T10:27:26;100095.41;;;15.53;34.59
56270;BME280;42176;43.240;27.880;2023-04-29T10:29:53;100081.56;;;15.64;34.61
56270;BME280;42176;43.240;27.880;2023-04-29T10:32:20;100080.38;;;15.72;34.30
56270;BME280;42176;43.240;27.880;2023-04-29T10:34:47;100057.88;;;15.57;34.71
56270;BME280;42176;43.240;27.880;2023-04-29T10:37:13;100065.00;;;15.77;34.69
56270;BME280;42176;43.240;27.880;2023-04-29T10:40:43;100074.03;;;15.74;34.81
56270;BME280;42176;43.240;27.880;2023-04-29T10:42:49;100083.47;;;15.81;35.31
56270;BME280;42176;43.240;27.880;2023-04-29T10:50:32;100070.91;;;15.85;34.77
56270;BME280;42176;43.240;27.880;2023-04-29T10:53:01;100053.50;;;15.75;34.92
56270;BME280;42176;43.240;27.880;2023-04-29T10:55:26;100070.69;;;15.90;34.88
56270;BME280;42176;43.240;27.880;2023-04-29T10:57:53;100066.38;;;15.87;34.19
56270;BME280;42176;43.240;27.880;2023-04-29T11:00:29;100058.13;;;15.92;33.52
56270;BME280;42176;43.240;27.880;2023-04-29T11:03:04;100055.03;;;16.01;34.28
56270;BME280;42176;43.240;27.880;2023-04-29T11:05:32;100058.03;;;15.93;34.12
56270;BME280;42176;43.240;27.880;2023-04-29T11:08:11;100042.25;;;16.08;34.24
56270;BME280;42176;43.240;27.880;2023-04-29T11:10:40;100043.63;;;16.17;34.88
56270;BME280;42176;43.240;27.880;2023-04-29T11:13:38;100039.69;;;16.05;33.64
56270;BME280;42176;43.240;27.880;2023-04-29T11:16:11;100029.81;;;16.07;34.42
56270;BME280;42176;43.240;27.880;2023-04-29T11:21:27;100025.47;;;16.23;33.98
56270;BME280;42176;43.240;27.880;2023-04-29T11:23:53;100020.91;;;16.25;34.25
56270;BME280;42176;43.240;27.880;2023-04-29T11:26:19;100030.22;;;16.36;33.21
56270;BME280;42176;43.240;27.880;2023-04-29T11:28:46;100024.66;;;16.21;31.82
56270;BME280;42176;43.240;27.880;2023-04-29T11:31:12;100044.13;;;16.25;32.55
56270;BME280;42176;43.240;27.880;2023-04-29T11:33:37;100011.31;;;16.21;33.04
56270;BME280;42176;43.240;27.880;2023-04-29T11:36:03;100011.81;;;16.29;33.02
56270;BME280;42176;43.240;27.880;2023-04-29T11:38:29;100019.84;;;16.29;32.63
56270;BME280;42176;43.240;27.880;2023-04-29T11:40:56;100000.09;;;16.32;33.66
56270;BME280;42176;43.240;27.880;2023-04-29T11:43:23;100005.94;;;16.21;33.75
56270;BME280;42176;43.240;27.880;2023-04-29T11:45:49;100002.50;;;16.19;33.58
56270;BME280;42176;43.240;27.880;2023-04-29T11:50:45;100008.13;;;16.13;33.39
56270;BME280;42176;43.240;27.880;2023-04-29T11:53:12;99999.66;;;16.22;33.15
56270;BME280;42176;43.240;27.880;2023-04-29T11:55:40;99991.66;;;16.22;33.29
56270;BME280;42176;43.240;27.880;2023-04-29T11:58:06;99996.84;;;16.25;32.74
56270;BME280;42176;43.240;27.880;2023-04-29T12:00:31;99986.00;;;16.28;33.50
56270;BME280;42176;43.240;27.880;2023-04-29T12:02:57;99994.03;;;16.28;33.32
56270;BME280;42176;43.240;27.880;2023-04-29T12:05:24;99978.78;;;16.31;33.05
56270;BME280;42176;43.240;27.880;2023-04-29T12:07:50;99979.16;;;16.23;34.18
56270;BME280;42176;43.240;27.880;2023-04-29T12:10:16;99969.69;;;16.35;33.67
56270;BME280;42176;43.240;27.880;2023-04-29T12:12:41;99969.94;;;16.48;33.52
56270;BME280;42176;43.240;27.880;2023-04-29T12:15:11;99972.06;;;16.58;32.97
56270;BME280;42176;43.240;27.880;2023-04-29T12:17:38;99961.06;;;16.65;33.54
56270;BME280;42176;43.240;27.880;2023-04-29T12:20:04;99950.53;;;16.62;32.97
56270;BME280;42176;43.240;27.880;2023-04-29T12:22:31;99979.50;;;16.71;33.39
56270;BME280;42176;43.240;27.880;2023-04-29T12:24:56;99966.50;;;16.81;32.84
56270;BME280;42176;43.240;27.880;2023-04-29T12:27:22;99965.66;;;16.80;31.91
56270;BME280;42176;43.240;27.880;2023-04-29T12:29:50;99965.97;;;16.74;32.21
56270;BME280;42176;43.240;27.880;2023-04-29T12:32:17;99971.00;;;16.80;32.22
56270;BME280;42176;43.240;27.880;2023-04-29T12:34:46;99959.81;;;16.89;32.71
56270;BME280;42176;43.240;27.880;2023-04-29T12:37:12;99954.63;;;16.86;32.18
56270;BME280;42176;43.240;27.880;2023-04-29T12:39:40;99959.81;;;16.89;32.58
56270;BME280;42176;43.240;27.880;2023-04-29T12:42:05;99951.94;;;16.69;32.42
56270;BME280;42176;43.240;27.880;2023-04-29T12:44:37;99955.94;;;16.60;32.26
56270;BME280;42176;43.240;27.880;2023-04-29T12:47:10;99950.03;;;16.71;32.50
56270;BME280;42176;43.240;27.880;2023-04-29T12:49:36;99949.44;;;16.66;32.78
56270;BME280;42176;43.240;27.880;2023-04-29T12:52:02;99948.63;;;16.64;32.93
56270;BME280;42176;43.240;27.880;2023-04-29T12:54:28;99947.88;;;16.79;32.94
56270;BME280;42176;43.240;27.880;2023-04-29T12:56:54;99959.81;;;16.89;33.03
56270;BME280;42176;43.240;27.880;2023-04-29T12:59:20;99943.13;;;16.84;32.40
56270;BME280;42176;43.240;27.880;2023-04-29T13:01:45;99954.00;;;16.81;32.63
56270;BME280;42176;43.240;27.880;2023-04-29T13:04:11;99953.38;;;16.94;31.86
56270;BME280;42176;43.240;27.880;2023-04-29T13:06:36;99933.69;;;16.77;31.41
56270;BME280;42176;43.240;27.880;2023-04-29T13:09:08;99953.03;;;16.82;31.32